createdAt,value
2019-02-17T00:00:57.876Z,15.33
2019-02-17T00:03:25.021Z,14.10
2019-02-17T00:05:52.116Z,14.93
2019-02-17T00:08:19.285Z,14.07
2019-02-17T00:10:46.388Z,14.07
2019-02-17T00:13:13.497Z,13.93
2019-02-17T00:15:40.601Z,14.27
2019-02-17T00:18:07.692Z,14.10
2019-02-17T00:20:34.794Z,16.10
2019-02-17T00:23:01.872Z,13.33
2019-02-17T00:25:28.952Z,17.17
2019-02-17T00:27:56.028Z,13.20
2019-02-17T00:30:23.154Z,13.23
2019-02-17T00:32:50.224Z,13.10
2019-02-17T00:35:17.341Z,14.67
2019-02-17T00:37:44.454Z,14.10
2019-02-17T00:40:11.572Z,12.37
2019-02-17T00:42:38.644Z,14.07
2019-02-17T00:45:05.786Z,13.47
2019-02-17T00:47:32.898Z,12.10
2019-02-17T00:50:00.012Z,13.87
2019-02-17T00:52:27.113Z,14.37
2019-02-17T00:54:54.219Z,10.97
2019-02-17T00:57:21.312Z,14.00
2019-02-17T00:59:48.376Z,13.90
2019-02-17T01:02:15.476Z,13.50
2019-02-17T01:04:42.562Z,13.07
2019-02-17T01:07:09.669Z,13.57
2019-02-17T01:09:36.769Z,13.60
2019-02-17T01:12:03.857Z,12.43
2019-02-17T01:14:30.913Z,12.13
2019-02-17T01:16:57.989Z,12.57
2019-02-17T01:19:25.094Z,10.97
2019-02-17T01:21:52.204Z,12.87
2019-02-17T01:24:19.284Z,12.93
2019-02-17T01:26:46.395Z,13.70
2019-02-17T01:29:20.061Z,14.60
2019-02-17T01:31:40.565Z,14.17
2019-02-17T01:34:09.520Z,13.20
2019-02-17T01:36:36.635Z,13.13
2019-02-17T01:39:05.133Z,14.27
2019-02-17T01:41:32.228Z,12.03
2019-02-17T01:43:59.314Z,13.27
2019-02-17T01:46:26.397Z,13.03
2019-02-17T01:48:53.492Z,13.13
2019-02-17T01:51:20.588Z,14.07
2019-02-17T01:53:47.689Z,15.87
2019-02-17T01:56:14.766Z,13.43
2019-02-17T01:58:41.847Z,14.57
2019-02-17T02:01:08.936Z,12.47
2019-02-17T02:03:36.032Z,11.97
2019-02-17T02:06:03.126Z,11.93
2019-02-17T02:08:30.233Z,10.80
2019-02-17T02:10:57.325Z,14.97
2019-02-17T02:13:24.401Z,10.70
2019-02-17T02:15:51.465Z,11.93
2019-02-17T02:18:18.556Z,12.70
2019-02-17T02:20:45.644Z,12.43
2019-02-17T02:23:12.728Z,13.50
2019-02-17T02:25:39.809Z,11.90
2019-02-17T02:28:06.879Z,12.17
2019-02-17T02:30:33.950Z,12.67
2019-02-17T02:33:01.052Z,13.67
2019-02-17T02:35:28.153Z,11.97
2019-02-17T02:37:55.232Z,11.77
2019-02-17T02:40:22.317Z,13.47
2019-02-17T02:42:49.411Z,12.87
2019-02-17T02:45:16.510Z,12.10
2019-02-17T02:47:43.592Z,11.67
2019-02-17T02:50:10.717Z,10.90
2019-02-17T02:52:37.806Z,13.40
2019-02-17T02:55:05.068Z,10.10
2019-02-17T02:57:32.160Z,10.37
2019-02-17T02:59:59.249Z,12.00
2019-02-17T03:02:26.348Z,11.47
2019-02-17T03:04:53.460Z,12.23
2019-02-17T03:07:21.502Z,9.83
2019-02-17T03:09:48.588Z,10.37
2019-02-17T03:12:15.648Z,9.77
2019-02-17T03:14:42.735Z,10.50
2019-02-17T03:17:09.857Z,10.47
2019-02-17T03:19:36.961Z,11.20
2019-02-17T03:22:04.047Z,9.83
2019-02-17T03:24:31.145Z,11.00
2019-02-17T03:26:58.284Z,12.73
2019-02-17T03:29:25.372Z,12.20
2019-02-17T03:31:52.497Z,8.50
2019-02-17T03:34:19.647Z,11.53
2019-02-17T03:36:46.746Z,10.70
2019-02-17T03:39:13.842Z,11.17
2019-02-17T03:41:40.965Z,9.53
2019-02-17T03:44:08.076Z,9.97
2019-02-17T03:46:35.186Z,12.87
2019-02-17T03:49:02.288Z,10.97
2019-02-17T03:51:29.405Z,10.90
2019-02-17T03:53:57.173Z,10.37
2019-02-17T03:56:24.249Z,9.13
2019-02-17T03:58:51.371Z,10.53
2019-02-17T04:01:18.473Z,11.13
2019-02-17T04:03:45.547Z,10.10
2019-02-17T04:06:12.645Z,9.43
2019-02-17T04:08:39.753Z,10.57
2019-02-17T04:11:06.845Z,8.83
2019-02-17T04:13:33.932Z,9.63
2019-02-17T04:16:01.028Z,12.00
2019-02-17T04:18:28.125Z,10.37
2019-02-17T04:20:55.248Z,10.43
2019-02-17T04:23:30.998Z,9.43
2019-02-17T04:25:49.473Z,8.07
2019-02-17T04:28:16.623Z,10.37
2019-02-17T04:30:43.741Z,11.80
2019-02-17T04:33:10.842Z,9.57
2019-02-17T04:35:37.954Z,10.40
2019-02-17T04:38:05.060Z,10.43
2019-02-17T04:40:32.153Z,7.97
2019-02-17T04:42:59.241Z,8.97
2019-02-17T04:45:26.332Z,10.87
2019-02-17T04:47:53.413Z,9.00
2019-02-17T04:50:20.481Z,11.40
2019-02-17T04:52:47.572Z,8.87
2019-02-17T04:55:14.684Z,8.67
2019-02-17T04:57:41.773Z,8.30
2019-02-17T05:00:08.912Z,8.93
2019-02-17T05:02:36.009Z,10.17
2019-02-17T05:05:03.317Z,10.23
2019-02-17T05:07:30.392Z,8.07
2019-02-17T05:09:57.488Z,7.87
2019-02-17T05:12:24.558Z,7.53
2019-02-17T05:14:51.685Z,9.63
2019-02-17T05:17:18.790Z,7.47
2019-02-17T05:19:45.910Z,10.03
2019-02-17T05:22:13.019Z,10.17
2019-02-17T05:24:40.101Z,9.67
2019-02-17T05:27:07.190Z,8.73
2019-02-17T05:29:34.277Z,9.97
2019-02-17T05:32:01.365Z,9.27
2019-02-17T05:34:28.468Z,7.47
2019-02-17T05:36:55.566Z,9.27
2019-02-17T05:39:22.685Z,9.40
2019-02-17T05:41:49.795Z,9.77
2019-02-17T05:44:16.874Z,7.57
2019-02-17T05:46:43.937Z,8.83
2019-02-17T05:49:11.020Z,8.70
2019-02-17T05:51:38.137Z,9.03
2019-02-17T05:54:05.220Z,10.07
2019-02-17T05:56:32.309Z,8.20
2019-02-17T05:58:59.370Z,7.77
2019-02-17T06:01:26.445Z,8.27
2019-02-17T06:03:53.537Z,7.20
2019-02-17T06:06:20.646Z,8.37
2019-02-17T06:08:47.738Z,7.83
2019-02-17T06:11:14.833Z,7.10
2019-02-17T06:13:41.927Z,8.90
2019-02-17T06:16:09.027Z,7.03
2019-02-17T06:18:36.150Z,9.00
2019-02-17T06:21:03.258Z,8.17
2019-02-17T06:23:30.352Z,7.07
2019-02-17T06:25:57.433Z,8.37
2019-02-17T06:28:24.581Z,8.80
2019-02-17T06:30:51.660Z,8.17
2019-02-17T06:33:18.769Z,7.13
2019-02-17T06:35:45.853Z,8.13
2019-02-17T06:38:12.953Z,7.37
2019-02-17T06:40:40.057Z,7.80
2019-02-17T06:43:07.204Z,7.23
2019-02-17T06:45:34.309Z,10.17
2019-02-17T06:48:01.405Z,7.20
2019-02-17T06:50:28.496Z,6.57
2019-02-17T06:52:55.585Z,8.30
2019-02-17T06:55:28.364Z,7.67
2019-02-17T06:57:55.454Z,8.03
2019-02-17T07:00:28.628Z,8.60
2019-02-17T07:02:55.734Z,8.57
2019-02-17T07:05:30.309Z,11.07
2019-02-17T07:07:57.408Z,8.20
2019-02-17T07:10:24.511Z,8.23
2019-02-17T07:12:51.580Z,7.63
2019-02-17T07:15:18.676Z,8.20
2019-02-17T07:17:45.795Z,6.80
2019-02-17T07:20:12.883Z,7.27
2019-02-17T07:22:40.007Z,7.80
2019-02-17T07:25:07.114Z,6.70
2019-02-17T07:27:34.208Z,8.80
2019-02-17T07:30:01.324Z,5.53
2019-02-17T07:32:28.407Z,6.47
2019-02-17T07:34:55.477Z,6.53
2019-02-17T07:37:32.766Z,8.20
2019-02-17T07:39:49.721Z,8.43
2019-02-17T07:42:16.797Z,7.37
2019-02-17T07:44:43.876Z,8.27
2019-02-17T07:47:11.046Z,7.63
2019-02-17T07:49:38.148Z,6.07
2019-02-17T07:52:05.246Z,5.90
2019-02-17T07:54:32.353Z,6.53
2019-02-17T07:56:59.439Z,6.07
2019-02-17T07:59:26.553Z,8.27
2019-02-17T08:01:53.642Z,6.63
2019-02-17T08:04:20.744Z,8.70
2019-02-17T08:06:47.825Z,7.87
2019-02-17T08:09:14.898Z,6.40
2019-02-17T08:11:41.994Z,6.73
2019-02-17T08:14:09.080Z,7.40
2019-02-17T08:16:36.270Z,6.67
2019-02-17T08:19:03.350Z,7.43
2019-02-17T08:21:30.429Z,6.63
2019-02-17T08:23:57.525Z,6.33
2019-02-17T08:26:24.593Z,9.07
2019-02-17T08:28:51.719Z,6.33
2019-02-17T08:31:18.817Z,6.70
2019-02-17T08:33:45.952Z,7.23
2019-02-17T08:36:13.041Z,7.93
2019-02-17T08:38:40.157Z,7.73
2019-02-17T08:41:07.462Z,7.73
2019-02-17T08:43:34.550Z,7.63
2019-02-17T08:46:01.640Z,7.93
2019-02-17T08:48:28.733Z,7.47
2019-02-17T08:50:55.817Z,6.60
2019-02-17T08:53:22.918Z,6.27
2019-02-17T08:55:50.042Z,6.53
2019-02-17T08:58:17.184Z,7.53
2019-02-17T09:00:44.276Z,8.53
2019-02-17T09:03:11.356Z,8.00
2019-02-17T09:05:44.259Z,9.27
2019-02-17T09:08:05.621Z,6.73
2019-02-17T09:10:32.724Z,8.53
2019-02-17T09:12:59.845Z,7.30
2019-02-17T09:15:26.989Z,6.87
2019-02-17T09:17:54.092Z,8.10
2019-02-17T09:20:21.213Z,6.87
2019-02-17T09:22:48.303Z,8.10
2019-02-17T09:25:15.388Z,6.67
2019-02-17T09:27:42.524Z,7.30
2019-02-17T09:30:12.181Z,7.03
2019-02-17T09:32:39.411Z,8.50
2019-02-17T09:35:06.518Z,8.20
2019-02-17T09:37:33.640Z,7.10
2019-02-17T09:40:00.718Z,8.43
2019-02-17T09:42:27.837Z,7.87
2019-02-17T09:44:54.964Z,8.47
2019-02-17T09:47:22.066Z,8.07
2019-02-17T09:49:49.180Z,7.30
2019-02-17T09:52:16.282Z,7.63
2019-02-17T09:54:43.385Z,7.77
2019-02-17T09:57:10.485Z,8.27
2019-02-17T09:59:37.600Z,8.93
2019-02-17T10:02:04.924Z,8.50
2019-02-17T10:04:32.085Z,8.13
2019-02-17T10:06:59.229Z,7.63
2019-02-17T10:09:26.344Z,7.73
2019-02-17T10:11:53.458Z,8.60
2019-02-17T10:14:20.576Z,9.73
2019-02-17T10:16:47.688Z,7.63
2019-02-17T10:19:14.836Z,9.70
2019-02-17T10:21:42.082Z,8.93
2019-02-17T10:24:09.154Z,9.33
2019-02-17T10:26:36.264Z,7.70
2019-02-17T10:29:03.410Z,7.90
2019-02-17T10:31:30.564Z,8.27
2019-02-17T10:33:57.677Z,9.37
2019-02-17T10:36:24.801Z,8.43
2019-02-17T10:38:51.917Z,9.10
2019-02-17T10:41:19.095Z,7.37
2019-02-17T10:43:46.185Z,8.97
2019-02-17T10:46:13.328Z,8.27
2019-02-17T10:48:40.428Z,7.97
2019-02-17T10:51:07.529Z,8.40
2019-02-17T10:53:34.673Z,8.87
2019-02-17T10:56:01.760Z,8.73
2019-02-17T10:58:28.878Z,8.70
2019-02-17T11:00:55.994Z,8.13
2019-02-17T11:03:23.129Z,8.67
2019-02-17T11:05:50.234Z,8.57
2019-02-17T11:08:17.344Z,7.97
2019-02-17T11:10:44.429Z,10.27
2019-02-17T11:13:11.542Z,8.03
2019-02-17T11:15:38.653Z,9.50
2019-02-17T11:18:05.764Z,8.30
2019-02-17T11:20:32.894Z,7.40
2019-02-17T11:23:00.023Z,7.67
2019-02-17T11:25:27.137Z,10.80
2019-02-17T11:27:54.237Z,8.03
2019-02-17T11:30:21.388Z,9.20
2019-02-17T11:32:57.703Z,8.50
2019-02-17T11:35:15.677Z,7.13
2019-02-17T11:37:45.003Z,9.07
2019-02-17T11:40:10.260Z,8.43
2019-02-17T11:42:38.025Z,9.53
2019-02-17T11:45:08.036Z,8.00
2019-02-17T11:47:35.191Z,9.03
2019-02-17T11:50:02.465Z,8.80
2019-02-17T11:52:29.556Z,9.20
2019-02-17T11:54:56.680Z,8.60
2019-02-17T11:57:23.797Z,9.40
2019-02-17T11:59:50.919Z,8.93
2019-02-17T12:02:24.632Z,9.30
2019-02-17T12:04:45.141Z,8.30
2019-02-17T12:07:12.265Z,9.27
2019-02-17T12:09:39.546Z,10.33
2019-02-17T12:12:06.632Z,7.83
2019-02-17T12:14:33.746Z,9.63
2019-02-17T12:17:01.954Z,13.13
2019-02-17T12:19:30.444Z,8.73
2019-02-17T12:22:07.120Z,8.37
2019-02-17T12:25:41.904Z,10.70
2019-02-17T12:28:15.195Z,8.37
2019-02-17T12:30:45.023Z,9.90
2019-02-17T12:33:19.307Z,9.00
2019-02-17T12:35:41.561Z,9.20
2019-02-17T12:38:11.673Z,10.73
2019-02-17T12:40:38.823Z,9.13
2019-02-17T12:43:05.920Z,10.17
2019-02-17T12:45:33.037Z,9.37
2019-02-17T12:48:00.166Z,8.57
2019-02-17T12:50:27.273Z,10.17
2019-02-17T12:52:54.380Z,9.47
2019-02-17T12:55:21.505Z,9.37
2019-02-17T12:57:48.589Z,10.27
2019-02-17T13:00:16.560Z,9.50
2019-02-17T13:02:43.695Z,10.43
2019-02-17T13:05:10.790Z,10.47
2019-02-17T13:07:37.885Z,10.20
2019-02-17T13:10:05.684Z,10.00
2019-02-17T13:12:32.773Z,8.93
2019-02-17T13:14:59.893Z,9.53
2019-02-17T13:17:27.025Z,8.77
2019-02-17T13:19:54.153Z,9.83
2019-02-17T13:22:21.265Z,8.93
2019-02-17T13:24:48.352Z,8.70
2019-02-17T13:27:15.464Z,7.87
2019-02-17T13:29:42.536Z,9.20
2019-02-17T13:32:09.641Z,9.20
2019-02-17T13:34:36.750Z,9.67
2019-02-17T13:37:03.851Z,9.43
2019-02-17T13:39:30.936Z,9.33
2019-02-17T13:41:58.045Z,8.80
2019-02-17T13:44:25.145Z,9.70
2019-02-17T13:46:52.236Z,9.73
2019-02-17T13:49:19.325Z,9.53
2019-02-17T13:51:46.430Z,11.77
2019-02-17T13:54:13.541Z,9.47
2019-02-17T13:56:40.637Z,10.87
2019-02-17T13:59:07.724Z,9.07
2019-02-17T14:01:34.846Z,10.57
2019-02-17T14:04:01.933Z,10.00
2019-02-17T14:06:29.005Z,8.53
2019-02-17T14:08:56.140Z,9.83
2019-02-17T14:11:23.257Z,10.37
2019-02-17T14:13:50.349Z,9.87
2019-02-17T14:16:17.437Z,10.80
2019-02-17T14:18:44.528Z,10.17
2019-02-17T14:21:11.668Z,11.17
2019-02-17T14:23:38.745Z,9.63
2019-02-17T14:26:05.858Z,10.83
2019-02-17T14:28:32.944Z,11.70
2019-02-17T14:31:00.049Z,9.50
2019-02-17T14:33:27.150Z,8.40
2019-02-17T14:35:54.245Z,9.30
2019-02-17T14:38:21.350Z,11.40
2019-02-17T14:40:48.456Z,10.27
2019-02-17T14:43:15.559Z,10.27
2019-02-17T14:45:42.653Z,9.60
2019-02-17T14:48:11.342Z,8.83
2019-02-17T14:50:36.881Z,10.33
2019-02-17T14:53:04.005Z,10.90
2019-02-17T14:55:31.120Z,8.97
2019-02-17T14:58:05.034Z,9.43
2019-02-17T15:00:25.412Z,10.20
2019-02-17T15:02:52.500Z,9.63
2019-02-17T15:05:19.601Z,10.30
2019-02-17T15:07:47.003Z,9.07
2019-02-17T15:10:13.843Z,10.40
2019-02-17T15:12:40.969Z,10.83
2019-02-17T15:15:08.405Z,9.60
2019-02-17T15:17:35.493Z,9.73
2019-02-17T15:20:02.865Z,9.17
2019-02-17T15:22:29.957Z,10.93
2019-02-17T15:24:57.061Z,9.43
2019-02-17T15:27:24.165Z,9.63
2019-02-17T15:29:51.280Z,11.53
2019-02-17T15:32:18.366Z,9.60
2019-02-17T15:34:45.476Z,9.40
2019-02-17T15:37:12.580Z,10.37
2019-02-17T15:39:40.107Z,9.13
2019-02-17T15:42:07.171Z,10.40
2019-02-17T15:44:34.269Z,9.60
2019-02-17T15:47:01.378Z,9.90
2019-02-17T15:49:28.473Z,10.40
2019-02-17T15:51:55.592Z,9.27
2019-02-17T15:54:22.718Z,8.60
2019-02-17T15:56:49.840Z,9.00
2019-02-17T15:59:16.940Z,8.53
2019-02-17T16:01:44.037Z,11.23
2019-02-17T16:04:11.155Z,9.63
2019-02-17T16:06:38.256Z,11.27
2019-02-17T16:09:05.977Z,9.93
2019-02-17T16:11:33.060Z,9.00
2019-02-17T16:14:00.182Z,10.77
2019-02-17T16:16:28.137Z,8.40
2019-02-17T16:18:55.211Z,9.30
2019-02-17T16:21:23.611Z,10.40
2019-02-17T16:23:50.082Z,9.43
2019-02-17T16:26:17.174Z,9.40
2019-02-17T16:28:44.255Z,8.27
2019-02-17T16:31:11.337Z,9.60
2019-02-17T16:33:38.425Z,8.67
2019-02-17T16:36:05.520Z,9.30
2019-02-17T16:38:32.652Z,9.17
2019-02-17T16:40:59.735Z,11.37
2019-02-17T16:43:26.864Z,9.10
2019-02-17T16:45:53.962Z,9.93
2019-02-17T16:48:21.042Z,8.70
2019-02-17T16:50:48.138Z,9.03
2019-02-17T16:53:15.269Z,9.33
2019-02-17T16:55:42.401Z,9.90
2019-02-17T16:58:09.525Z,7.67
2019-02-17T17:00:36.622Z,8.97
2019-02-17T17:03:03.791Z,9.83
2019-02-17T17:05:30.922Z,9.47
2019-02-17T17:07:58.034Z,10.30
2019-02-17T17:10:25.161Z,9.10
2019-02-17T17:12:52.292Z,9.87
2019-02-17T17:15:19.380Z,8.93
2019-02-17T17:17:46.504Z,9.67
2019-02-17T17:20:13.767Z,11.13
2019-02-17T17:22:40.877Z,9.30
2019-02-17T17:25:08.034Z,7.83
2019-02-17T17:27:35.170Z,10.67
2019-02-17T17:30:02.332Z,10.03
2019-02-17T17:32:29.444Z,8.73
2019-02-17T17:34:58.781Z,8.50
2019-02-17T17:37:23.734Z,8.87
2019-02-17T17:39:50.807Z,9.43
2019-02-17T17:42:17.916Z,10.80
2019-02-17T17:44:45.009Z,8.67
2019-02-17T17:47:12.131Z,10.57
2019-02-17T17:49:39.210Z,9.90
2019-02-17T17:52:06.315Z,10.03
2019-02-17T17:54:33.428Z,10.20
2019-02-17T17:57:00.513Z,8.73
2019-02-17T17:59:27.585Z,7.40
2019-02-17T18:01:54.700Z,8.60
2019-02-17T18:04:21.808Z,7.10
2019-02-17T18:06:48.912Z,9.53
2019-02-17T18:09:16.005Z,10.30
2019-02-17T18:11:43.123Z,8.23
2019-02-17T18:14:10.227Z,8.30
2019-02-17T18:16:37.344Z,7.57
2019-02-17T18:19:04.491Z,9.53
2019-02-17T18:21:31.573Z,8.73
2019-02-17T18:23:58.667Z,8.47
2019-02-17T18:26:25.772Z,7.57
2019-02-17T18:28:53.041Z,9.43
2019-02-17T18:31:20.045Z,7.43
2019-02-17T18:33:47.188Z,8.53
2019-02-17T18:36:14.317Z,9.40
2019-02-17T18:38:41.411Z,8.90
2019-02-17T18:41:08.523Z,8.30
2019-02-17T18:43:35.632Z,8.47
2019-02-17T18:46:02.725Z,9.33
2019-02-17T18:48:29.816Z,8.37
2019-02-17T18:50:59.209Z,9.20
2019-02-17T18:53:24.039Z,8.67
2019-02-17T18:55:51.146Z,6.67
2019-02-17T18:58:18.281Z,7.37
2019-02-17T19:00:45.356Z,8.80
2019-02-17T19:03:12.432Z,9.80
2019-02-17T19:05:39.513Z,9.67
2019-02-17T19:08:06.616Z,8.60
2019-02-17T19:10:34.926Z,8.63
2019-02-17T19:13:00.912Z,10.30
2019-02-17T19:15:28.089Z,10.23
2019-02-17T19:17:55.337Z,10.87
2019-02-17T19:20:23.885Z,8.53
2019-02-17T19:22:51.130Z,8.30
2019-02-17T19:25:18.476Z,9.60
2019-02-17T19:27:45.709Z,8.83
2019-02-17T19:30:13.624Z,7.33
2019-02-17T19:32:40.827Z,11.43
2019-02-17T19:35:09.274Z,9.77
2019-02-17T19:37:36.515Z,9.80
2019-02-17T19:40:04.015Z,10.73
2019-02-17T19:42:31.117Z,11.07
2019-02-17T19:44:58.209Z,10.23
2019-02-17T19:47:25.313Z,9.47
2019-02-17T19:49:52.400Z,10.07
2019-02-17T19:52:19.483Z,9.17
2019-02-17T19:54:46.549Z,9.43
2019-02-17T19:57:13.632Z,9.43
2019-02-17T19:59:40.744Z,8.67
2019-02-17T20:02:07.848Z,10.40
2019-02-17T20:04:40.512Z,9.80
2019-02-17T20:07:07.662Z,8.70
2019-02-17T20:09:34.786Z,10.27
2019-02-17T20:12:01.861Z,8.87
2019-02-17T20:14:28.949Z,11.07
2019-02-17T20:16:56.024Z,9.00
2019-02-17T20:19:25.549Z,8.77
2019-02-17T20:21:50.222Z,9.40
2019-02-17T20:24:17.327Z,8.83
2019-02-17T20:26:44.404Z,8.70
2019-02-17T20:29:12.013Z,8.83
2019-02-17T20:31:38.595Z,9.43
2019-02-17T20:34:05.656Z,8.40
2019-02-17T20:36:32.753Z,9.50
2019-02-17T20:38:59.844Z,8.87
2019-02-17T20:41:26.929Z,9.00
2019-02-17T20:43:54.002Z,8.87
2019-02-17T20:46:21.122Z,8.93
2019-02-17T20:48:48.201Z,9.70
2019-02-17T20:51:15.291Z,9.27
2019-02-17T20:53:42.438Z,8.73
2019-02-17T20:56:09.553Z,9.30
2019-02-17T20:58:36.665Z,9.40
2019-02-17T21:01:03.780Z,8.90
2019-02-17T21:03:30.872Z,10.37
2019-02-17T21:05:58.034Z,11.83
2019-02-17T21:08:25.123Z,9.07
2019-02-17T21:10:52.240Z,9.17
2019-02-17T21:13:19.340Z,9.20
2019-02-17T21:15:46.429Z,10.23
2019-02-17T21:18:13.510Z,10.03
2019-02-17T21:20:40.720Z,11.33
2019-02-17T21:23:07.849Z,14.37
2019-02-17T21:25:35.028Z,10.20
2019-02-17T21:28:02.112Z,9.80
2019-02-17T21:30:29.222Z,9.07
2019-02-17T21:32:56.324Z,9.57
2019-02-17T21:35:23.424Z,9.67
2019-02-17T21:37:50.538Z,9.67
2019-02-17T21:40:17.637Z,11.03
2019-02-17T21:42:44.932Z,10.80
2019-02-17T21:45:12.013Z,8.40
2019-02-17T21:47:39.298Z,8.40
2019-02-17T21:50:07.380Z,8.67
2019-02-17T21:52:34.469Z,8.00
2019-02-17T21:55:01.621Z,10.90
2019-02-17T21:57:28.745Z,9.33
2019-02-17T21:59:55.816Z,9.13
2019-02-17T22:02:23.533Z,11.97
2019-02-17T22:04:50.602Z,9.30
2019-02-17T22:07:17.706Z,9.80
2019-02-17T22:09:44.829Z,7.03
2019-02-17T22:12:11.910Z,10.53
2019-02-17T22:14:39.005Z,9.03
2019-02-17T22:17:06.125Z,10.90
2019-02-17T22:19:33.226Z,9.53
2019-02-17T22:22:00.328Z,10.23
2019-02-17T22:24:27.434Z,9.07
2019-02-17T22:26:54.557Z,9.30
2019-02-17T22:29:21.667Z,9.33
2019-02-17T22:31:48.789Z,13.00
2019-02-17T22:34:15.882Z,10.27
2019-02-17T22:36:44.021Z,11.67
2019-02-17T22:39:10.126Z,11.00
2019-02-17T22:41:37.264Z,8.77
2019-02-17T22:44:04.362Z,9.17
2019-02-17T22:46:31.457Z,10.47
2019-02-17T22:48:58.645Z,10.07
2019-02-17T22:51:25.736Z,9.87
2019-02-17T22:53:52.776Z,7.90
2019-02-17T22:56:19.880Z,9.63
2019-02-17T22:58:46.984Z,9.77
2019-02-17T23:01:18.194Z,10.83
2019-02-17T23:03:45.265Z,9.37
2019-02-17T23:06:12.349Z,8.90
2019-02-17T23:08:39.425Z,9.90
2019-02-17T23:11:06.520Z,11.40
2019-02-17T23:13:33.625Z,9.70
2019-02-17T23:16:00.712Z,11.13
2019-02-17T23:18:27.945Z,11.23
2019-02-17T23:20:55.028Z,11.13
2019-02-17T23:23:22.121Z,8.80
2019-02-17T23:25:49.190Z,10.53
2019-02-17T23:28:16.287Z,9.57
2019-02-17T23:30:43.393Z,10.33
2019-02-17T23:33:10.484Z,8.83
2019-02-17T23:35:37.585Z,9.43
2019-02-17T23:38:04.661Z,10.67
2019-02-17T23:40:31.760Z,9.13
2019-02-17T23:42:58.803Z,10.40
2019-02-17T23:45:25.886Z,10.33
2019-02-17T23:47:52.981Z,9.67
2019-02-17T23:50:20.061Z,9.50
2019-02-17T23:52:47.136Z,8.83
2019-02-17T23:55:14.237Z,10.70
2019-02-17T23:57:41.331Z,9.63
